createdAt,value
2022-09-24T00:01:40.673Z,22.08
2022-09-24T00:04:12.761Z,23.33
2022-09-24T00:06:46.092Z,22.63
2022-09-24T00:09:22.073Z,22.55
2022-09-24T00:11:53.354Z,24.00
2022-09-24T00:14:20.960Z,23.00
2022-09-24T00:16:48.452Z,18.88
2022-09-24T00:19:16.030Z,21.52
2022-09-24T00:21:44.206Z,19.70
2022-09-24T00:24:35.759Z,20.55
2022-09-24T00:27:03.734Z,20.55
2022-09-24T00:29:32.935Z,21.08
2022-09-24T00:32:00.593Z,21.58
2022-09-24T00:34:28.217Z,20.50
2022-09-24T00:36:55.698Z,21.55
2022-09-24T00:39:23.152Z,20.95
2022-09-24T00:41:50.635Z,19.77
2022-09-24T00:44:46.254Z,19.55
2022-09-24T00:47:19.457Z,20.10
2022-09-24T00:49:50.118Z,19.55
2022-09-24T00:52:19.755Z,20.98
2022-09-24T00:54:48.020Z,20.63
2022-09-24T00:57:15.794Z,19.13
2022-09-24T00:59:45.047Z,21.67
2022-09-24T01:02:12.695Z,20.90
2022-09-24T01:04:40.319Z,20.42
2022-09-24T01:07:07.804Z,19.35
2022-09-24T01:09:35.684Z,22.17
2022-09-24T01:12:20.505Z,19.63
2022-09-24T01:15:08.246Z,22.60
2022-09-24T01:17:49.427Z,22.33
2022-09-24T01:20:58.561Z,22.58
2022-09-24T01:23:48.557Z,23.05
2022-09-24T01:26:21.475Z,23.40
2022-09-24T01:28:52.009Z,25.83
2022-09-24T01:31:30.972Z,23.30
2022-09-24T01:34:05.646Z,25.58
2022-09-24T01:36:36.899Z,24.25
2022-09-24T01:39:07.873Z,27.10
2022-09-24T01:41:37.328Z,25.75
2022-09-24T01:44:07.791Z,26.30
2022-09-24T01:46:39.707Z,27.70
2022-09-24T01:49:08.038Z,26.90
2022-09-24T01:51:48.208Z,26.77
2022-09-24T01:54:30.231Z,27.45
2022-09-24T01:57:03.749Z,27.65
2022-09-24T01:59:40.500Z,24.17
2022-09-24T02:02:23.325Z,26.00
2022-09-24T02:04:59.596Z,23.08
2022-09-24T02:07:43.774Z,26.75
2022-09-24T02:10:21.570Z,26.50
2022-09-24T02:12:59.425Z,26.45
2022-09-24T02:15:35.646Z,27.15
2022-09-24T02:18:10.202Z,25.60
2022-09-24T02:20:40.178Z,23.80
2022-09-24T02:23:09.179Z,23.52
2022-09-24T02:25:57.909Z,23.42
2022-09-24T02:28:25.959Z,23.42
2022-09-24T02:31:00.240Z,23.90
2022-09-24T02:33:47.407Z,24.13
2022-09-24T02:36:14.965Z,23.10
2022-09-24T02:38:43.114Z,23.27
2022-09-24T02:41:11.558Z,23.55
2022-09-24T02:43:41.003Z,24.30
2022-09-24T02:46:10.277Z,23.52
2022-09-24T02:48:38.546Z,25.05
2022-09-24T02:51:06.637Z,22.20
2022-09-24T02:53:34.338Z,24.13
2022-09-24T02:56:02.386Z,25.05
2022-09-24T02:58:31.092Z,27.00
2022-09-24T03:00:59.009Z,26.13
2022-09-24T03:03:27.479Z,25.88
2022-09-24T03:05:55.165Z,26.75
2022-09-24T03:08:24.244Z,25.73
2022-09-24T03:10:52.789Z,27.00
2022-09-24T03:13:20.484Z,27.23
2022-09-24T03:15:47.992Z,27.48
2022-09-24T03:18:16.064Z,25.65
2022-09-24T03:20:43.557Z,25.67
2022-09-24T03:23:11.047Z,28.33
2022-09-24T03:25:38.544Z,25.50
2022-09-24T03:28:06.051Z,27.48
2022-09-24T03:30:50.766Z,26.27
2022-09-24T03:33:18.273Z,27.08
2022-09-24T03:35:45.743Z,27.95
2022-09-24T03:38:13.198Z,26.60
2022-09-24T03:40:40.771Z,26.63
2022-09-24T03:43:08.391Z,27.13
2022-09-24T03:45:35.984Z,30.35
2022-09-24T03:48:03.440Z,27.00
2022-09-24T03:50:30.880Z,29.20
2022-09-24T03:52:58.377Z,30.05
2022-09-24T03:55:25.854Z,29.17
2022-09-24T03:57:53.390Z,29.52
2022-09-24T04:00:20.862Z,30.40
2022-09-24T04:02:48.407Z,33.08
2022-09-24T04:05:16.129Z,29.15
2022-09-24T04:07:45.015Z,30.95
2022-09-24T04:10:13.690Z,32.00
2022-09-24T04:12:41.222Z,32.30
2022-09-24T04:15:09.062Z,31.05
2022-09-24T04:17:36.627Z,30.17
2022-09-24T04:20:04.285Z,32.85
2022-09-24T04:22:31.878Z,31.63
2022-09-24T04:24:59.395Z,31.80
2022-09-24T04:27:26.916Z,33.08
2022-09-24T04:29:55.194Z,29.15
2022-09-24T04:32:22.812Z,31.30
2022-09-24T04:34:50.295Z,30.90
2022-09-24T04:37:17.762Z,31.92
2022-09-24T04:39:45.272Z,30.67
2022-09-24T04:42:18.067Z,30.92
2022-09-24T04:44:47.766Z,30.67
2022-09-24T04:47:16.067Z,32.63
2022-09-24T04:49:45.841Z,30.30
2022-09-24T04:52:14.941Z,29.45
2022-09-24T04:54:47.327Z,29.77
2022-09-24T04:57:16.026Z,28.83
2022-09-24T04:59:44.417Z,29.52
2022-09-24T05:02:12.338Z,27.15
2022-09-24T05:04:39.883Z,28.27
2022-09-24T05:07:07.410Z,28.30
2022-09-24T05:09:34.962Z,27.83
2022-09-24T05:12:03.419Z,27.48
2022-09-24T05:14:31.234Z,26.10
2022-09-24T05:16:58.878Z,29.77
2022-09-24T05:19:26.440Z,28.35
2022-09-24T05:21:53.894Z,28.10
2022-09-24T05:24:21.347Z,28.17
2022-09-24T05:27:06.378Z,27.33
2022-09-24T05:29:33.850Z,27.15
2022-09-24T05:32:05.600Z,26.95
2022-09-24T05:34:33.833Z,27.40
2022-09-24T05:37:02.275Z,27.45
2022-09-24T05:39:33.896Z,24.65
2022-09-24T05:42:04.189Z,28.17
2022-09-24T05:44:32.861Z,25.15
2022-09-24T05:47:00.742Z,27.42
2022-09-24T05:49:28.309Z,26.73
2022-09-24T05:51:55.793Z,25.85
2022-09-24T05:54:23.254Z,27.38
2022-09-24T05:56:50.888Z,26.15
2022-09-24T05:59:18.399Z,25.33
2022-09-24T06:01:45.974Z,26.27
2022-09-24T06:04:13.858Z,24.35
2022-09-24T06:06:41.345Z,26.30
2022-09-24T06:09:10.109Z,27.20
2022-09-24T06:11:40.771Z,26.70
2022-09-24T06:14:09.735Z,27.83
2022-09-24T06:16:37.458Z,28.63
2022-09-24T06:19:05.356Z,28.75
2022-09-24T06:21:33.053Z,26.50
2022-09-24T06:24:00.527Z,26.33
2022-09-24T06:26:28.994Z,26.38
2022-09-24T06:29:00.771Z,26.52
2022-09-24T06:31:31.588Z,25.50
2022-09-24T06:33:59.264Z,27.25
2022-09-24T06:36:27.032Z,26.83
2022-09-24T06:38:54.625Z,27.00
2022-09-24T06:41:22.524Z,24.45
2022-09-24T06:43:50.166Z,26.13
2022-09-24T06:46:18.220Z,26.67
2022-09-24T06:48:45.881Z,23.88
2022-09-24T06:51:13.520Z,26.58
2022-09-24T06:53:41.157Z,25.85
2022-09-24T06:56:08.767Z,25.92
2022-09-24T06:58:36.428Z,26.92
2022-09-24T07:01:04.759Z,27.70
2022-09-24T07:03:34.414Z,25.70
2022-09-24T07:06:04.823Z,25.65
2022-09-24T07:08:32.917Z,22.42
2022-09-24T07:11:01.633Z,24.10
2022-09-24T07:13:29.303Z,25.23
2022-09-24T07:15:56.947Z,24.42
2022-09-24T07:18:24.615Z,23.30
2022-09-24T07:20:54.192Z,24.55
2022-09-24T07:23:22.670Z,22.00
2022-09-24T07:25:53.906Z,23.35
2022-09-24T07:28:21.511Z,22.58
2022-09-24T07:30:57.490Z,24.50
2022-09-24T07:33:25.241Z,23.60
2022-09-24T07:35:52.879Z,21.73
2022-09-24T07:38:20.638Z,22.73
2022-09-24T07:40:48.305Z,23.73
2022-09-24T07:43:15.996Z,23.85
2022-09-24T07:45:43.902Z,23.58
2022-09-24T07:48:12.863Z,22.45
2022-09-24T07:50:41.952Z,20.98
2022-09-24T07:53:13.653Z,19.60
2022-09-24T07:55:42.031Z,21.50
2022-09-24T07:58:13.550Z,21.83
2022-09-24T08:00:41.708Z,19.90
2022-09-24T08:03:09.898Z,19.27
2022-09-24T08:05:37.893Z,20.85
2022-09-24T08:08:06.507Z,17.45
2022-09-24T08:10:34.193Z,16.25
2022-09-24T08:13:05.030Z,13.82
2022-09-24T08:15:32.692Z,12.50
2022-09-24T08:18:04.514Z,13.40
2022-09-24T08:20:33.736Z,10.75
2022-09-24T08:23:03.299Z,11.30
2022-09-24T08:25:31.273Z,10.65
2022-09-24T08:28:04.523Z,12.20
2022-09-24T08:30:33.425Z,10.43
2022-09-24T08:33:01.271Z,10.60
2022-09-24T08:35:28.878Z,11.80
2022-09-24T08:37:57.144Z,11.38
2022-09-24T08:40:27.773Z,11.45
2022-09-24T08:43:42.033Z,10.63
2022-09-24T08:46:40.325Z,11.07
2022-09-24T08:49:11.966Z,10.50
2022-09-24T08:51:47.528Z,12.00
2022-09-24T08:54:16.369Z,9.68
2022-09-24T08:56:47.379Z,10.68
2022-09-24T08:59:30.456Z,10.55
2022-09-24T09:02:04.191Z,9.85
2022-09-24T09:04:59.959Z,11.23
2022-09-24T09:07:38.410Z,10.00
2022-09-24T09:10:10.799Z,9.25
2022-09-24T09:12:44.112Z,9.32
2022-09-24T09:15:20.729Z,9.80
2022-09-24T09:17:54.040Z,8.43
2022-09-24T09:20:31.151Z,8.68
2022-09-24T09:23:04.747Z,8.98
2022-09-24T09:25:39.031Z,6.82
2022-09-24T09:28:15.137Z,6.07
2022-09-24T09:31:01.110Z,5.95
2022-09-24T09:33:40.962Z,4.82
2022-09-24T09:36:39.409Z,4.03
2022-09-24T09:39:28.419Z,4.22
2022-09-24T09:42:10.492Z,4.10
2022-09-24T09:44:42.516Z,4.53
2022-09-24T09:47:44.693Z,4.28
2022-09-24T09:50:20.746Z,3.72
2022-09-24T09:52:48.448Z,3.88
2022-09-24T09:55:28.508Z,3.05
2022-09-24T09:58:19.552Z,3.03
2022-09-24T10:00:48.412Z,2.22
2022-09-24T10:03:46.305Z,2.13
2022-09-24T10:06:31.668Z,1.98
2022-09-24T10:09:08.624Z,1.85
2022-09-24T10:11:36.317Z,1.67
2022-09-24T10:14:10.788Z,1.63
2022-09-24T10:16:49.114Z,1.55
2022-09-24T10:19:22.716Z,2.08
2022-09-24T10:21:51.851Z,2.47
2022-09-24T10:24:27.697Z,1.88
2022-09-24T10:26:56.711Z,2.38
2022-09-24T10:29:45.784Z,2.03
2022-09-24T10:32:19.846Z,2.88
2022-09-24T10:35:06.771Z,1.65
2022-09-24T10:37:36.100Z,1.58
2022-09-24T10:40:15.490Z,2.50
2022-09-24T10:42:43.344Z,1.60
2022-09-24T10:45:15.016Z,1.98
2022-09-24T10:47:59.042Z,1.38
2022-09-24T10:50:54.316Z,1.80
2022-09-24T10:53:53.293Z,2.13
2022-09-24T10:57:01.335Z,2.40
2022-09-24T10:59:51.261Z,3.42
2022-09-24T11:02:56.664Z,3.28
2022-09-24T11:05:26.058Z,4.07
2022-09-24T11:08:05.267Z,4.57
2022-09-24T11:10:54.112Z,4.78
2022-09-24T11:13:52.031Z,4.75
2022-09-24T11:16:19.842Z,3.17
2022-09-24T11:19:24.295Z,3.17
2022-09-24T11:22:03.704Z,2.03
2022-09-24T11:25:09.437Z,2.53
2022-09-24T11:28:01.345Z,2.97
2022-09-24T11:30:40.727Z,2.22
2022-09-24T11:33:11.211Z,1.75
2022-09-24T11:36:06.413Z,2.28
2022-09-24T11:38:59.927Z,3.05
2022-09-24T11:41:37.027Z,3.42
2022-09-24T11:44:40.046Z,3.05
2022-09-24T11:47:26.224Z,2.35
2022-09-24T11:50:14.293Z,1.52
2022-09-24T11:52:55.468Z,1.95
2022-09-24T11:55:25.857Z,1.20
2022-09-24T11:58:07.552Z,1.65
2022-09-24T12:00:41.699Z,1.35
2022-09-24T12:03:26.417Z,1.15
2022-09-24T12:06:03.036Z,1.88
2022-09-24T12:08:41.807Z,1.92
2022-09-24T12:11:20.858Z,2.10
2022-09-24T12:13:55.637Z,2.97
2022-09-24T12:16:28.371Z,1.75
2022-09-24T12:19:10.253Z,2.28
2022-09-24T12:21:42.143Z,2.45
2022-09-24T12:24:23.203Z,2.08
2022-09-24T12:26:57.712Z,1.48
2022-09-24T12:29:55.062Z,1.95
2022-09-24T12:32:58.076Z,1.13
2022-09-24T12:35:55.131Z,2.20
2022-09-24T12:38:57.517Z,1.35
2022-09-24T12:41:48.427Z,1.20
2022-09-24T12:44:23.850Z,1.98
2022-09-24T12:46:57.381Z,1.50
2022-09-24T12:49:27.659Z,1.13
2022-09-24T12:51:57.672Z,1.42
2022-09-24T12:54:28.752Z,1.45
2022-09-24T12:57:26.469Z,1.17
2022-09-24T13:00:01.940Z,1.95
2022-09-24T13:02:33.220Z,2.13
2022-09-24T13:05:03.857Z,2.08
2022-09-24T13:07:41.152Z,1.30
2022-09-24T13:10:30.711Z,2.25
2022-09-24T13:13:00.875Z,1.42
2022-09-24T13:15:40.031Z,1.73
2022-09-24T13:18:24.294Z,2.35
2022-09-24T13:21:09.357Z,0.90
2022-09-24T13:23:37.076Z,1.20
2022-09-24T13:26:10.671Z,1.63
2022-09-24T13:28:48.892Z,1.10
2022-09-24T13:31:22.734Z,0.80
2022-09-24T13:34:10.772Z,1.08
2022-09-24T13:36:47.001Z,1.02
2022-09-24T13:39:21.279Z,1.20
2022-09-24T13:42:07.527Z,1.25
2022-09-24T13:44:44.954Z,2.17
2022-09-24T13:47:28.641Z,0.88
2022-09-24T13:50:23.742Z,0.98
2022-09-24T13:53:29.777Z,1.73
2022-09-24T13:56:01.411Z,1.02
2022-09-24T13:58:41.168Z,1.23
2022-09-24T14:01:21.525Z,0.77
2022-09-24T14:04:05.645Z,1.40
2022-09-24T14:06:40.080Z,0.80
2022-09-24T14:09:18.218Z,0.90
2022-09-24T14:11:53.591Z,2.65
2022-09-24T14:14:24.698Z,1.13
2022-09-24T14:16:54.965Z,1.35
2022-09-24T14:19:24.246Z,0.80
2022-09-24T14:21:57.984Z,1.30
2022-09-24T14:24:31.007Z,1.58
2022-09-24T14:27:08.271Z,2.13
2022-09-24T14:29:48.238Z,1.10
2022-09-24T14:32:32.366Z,1.92
2022-09-24T14:35:06.431Z,1.30
2022-09-24T14:37:37.162Z,1.45
2022-09-24T14:40:12.965Z,0.88
2022-09-24T14:42:56.560Z,1.23
2022-09-24T14:45:34.419Z,1.25
2022-09-24T14:48:07.500Z,0.88
2022-09-24T14:50:41.417Z,1.05
2022-09-24T14:53:28.063Z,0.85
2022-09-24T14:55:55.790Z,1.15
2022-09-24T14:58:25.937Z,0.85
2022-09-24T15:00:59.265Z,0.90
2022-09-24T15:03:33.793Z,0.90
2022-09-24T15:06:17.730Z,0.90
2022-09-24T15:08:52.841Z,1.20
2022-09-24T15:11:21.288Z,1.13
2022-09-24T15:13:59.466Z,0.90
2022-09-24T15:16:31.888Z,1.02
2022-09-24T15:19:16.868Z,0.77
2022-09-24T15:21:45.517Z,0.88
2022-09-24T15:24:13.153Z,0.98
2022-09-24T15:26:43.435Z,0.70
2022-09-24T15:29:24.342Z,1.90
2022-09-24T15:31:53.413Z,0.63
2022-09-24T15:34:21.328Z,0.70
2022-09-24T15:36:55.725Z,0.70
2022-09-24T15:39:23.665Z,0.82
2022-09-24T15:41:51.300Z,1.00
2022-09-24T15:44:26.242Z,0.70
2022-09-24T15:46:57.598Z,0.80
2022-09-24T15:49:26.325Z,0.80
2022-09-24T15:52:02.991Z,1.55
2022-09-24T15:54:30.669Z,1.80
2022-09-24T15:56:58.854Z,0.70
2022-09-24T15:59:26.494Z,0.82
2022-09-24T16:01:58.668Z,1.75
2022-09-24T16:06:53.941Z,1.13
2022-09-24T16:09:21.572Z,0.63
2022-09-24T16:11:49.232Z,1.20
2022-09-24T16:14:16.886Z,1.05
2022-09-24T16:16:44.534Z,0.75
2022-09-24T16:19:12.523Z,1.02
2022-09-24T16:21:40.346Z,0.70
2022-09-24T16:24:08.021Z,0.80
2022-09-24T16:26:35.716Z,1.23
2022-09-24T16:29:04.953Z,0.90
2022-09-24T16:31:32.761Z,0.70
2022-09-24T16:34:01.157Z,0.75
2022-09-24T16:36:28.912Z,1.40
2022-09-24T16:38:58.148Z,1.25
2022-09-24T16:41:25.879Z,1.00
2022-09-24T16:43:58.410Z,1.55
2022-09-24T16:46:26.112Z,0.85
2022-09-24T16:48:53.818Z,0.65
2022-09-24T16:51:22.182Z,0.52
2022-09-24T16:53:51.383Z,0.85
2022-09-24T16:56:19.179Z,1.02
2022-09-24T16:58:47.983Z,0.73
2022-09-24T17:01:18.343Z,0.90
2022-09-24T17:03:51.119Z,0.60
2022-09-24T17:06:24.262Z,0.70
2022-09-24T17:09:09.718Z,1.17
2022-09-24T17:11:40.177Z,1.02
2022-09-24T17:14:11.547Z,1.73
2022-09-24T17:16:40.101Z,0.50
2022-09-24T17:19:08.329Z,1.27
2022-09-24T17:21:40.424Z,1.70
2022-09-24T17:24:08.466Z,0.70
2022-09-24T17:26:36.768Z,0.68
2022-09-24T17:29:04.986Z,1.00
2022-09-24T17:31:32.843Z,1.50
2022-09-24T17:34:02.964Z,0.80
2022-09-24T17:36:32.499Z,0.70
2022-09-24T17:39:01.049Z,1.00
2022-09-24T17:41:30.293Z,0.50
2022-09-24T17:43:59.693Z,0.70
2022-09-24T17:46:29.672Z,0.82
2022-09-24T17:48:59.934Z,0.52
2022-09-24T17:51:37.794Z,0.93
2022-09-24T17:54:12.363Z,0.80
2022-09-24T17:56:40.510Z,0.60
2022-09-24T17:59:09.824Z,0.95
2022-09-24T18:01:39.807Z,0.70
2022-09-24T18:04:11.615Z,1.33
2022-09-24T18:06:41.148Z,0.65
2022-09-24T18:09:10.097Z,0.55
2022-09-24T18:11:48.969Z,2.67
2022-09-24T18:14:23.686Z,0.70
2022-09-24T18:16:51.711Z,0.60
2022-09-24T18:19:19.763Z,0.50
2022-09-24T18:21:49.272Z,0.70
2022-09-24T18:24:17.490Z,0.90
2022-09-24T18:26:49.512Z,0.68
2022-09-24T18:29:19.371Z,0.80
2022-09-24T18:31:47.013Z,0.90
2022-09-24T18:34:16.339Z,0.88
2022-09-24T18:36:45.332Z,0.70
2022-09-24T18:39:21.711Z,1.48
2022-09-24T18:41:51.889Z,0.85
2022-09-24T18:44:19.613Z,0.80
2022-09-24T18:46:47.224Z,0.95
2022-09-24T18:49:14.809Z,1.33
2022-09-24T18:51:42.356Z,0.73
2022-09-24T18:54:13.954Z,1.15
2022-09-24T18:56:42.787Z,1.25
2022-09-24T18:59:19.344Z,0.88
2022-09-24T19:01:48.155Z,0.70
2022-09-24T19:04:16.009Z,0.93
2022-09-24T19:06:46.191Z,0.70
2022-09-24T19:09:17.333Z,0.70
2022-09-24T19:11:46.289Z,0.80
2022-09-24T19:14:17.989Z,0.77
2022-09-24T19:16:47.061Z,0.98
2022-09-24T19:19:14.676Z,0.95
2022-09-24T19:21:42.215Z,0.90
2022-09-24T19:24:10.834Z,2.13
2022-09-24T19:26:38.448Z,0.90
2022-09-24T19:29:06.656Z,0.88
2022-09-24T19:31:37.071Z,1.33
2022-09-24T19:34:06.660Z,0.90
2022-09-24T19:36:42.802Z,1.20
2022-09-24T19:39:12.517Z,0.60
2022-09-24T19:41:40.233Z,1.05
2022-09-24T19:44:09.022Z,0.85
2022-09-24T19:46:38.445Z,0.98
2022-09-24T19:49:06.997Z,1.23
2022-09-24T19:51:35.364Z,1.10
2022-09-24T19:54:08.071Z,1.27
2022-09-24T19:56:36.339Z,2.00
2022-09-24T19:59:04.834Z,2.58
2022-09-24T20:01:33.541Z,1.27
2022-09-24T20:04:05.028Z,1.40
2022-09-24T20:06:34.336Z,1.67
2022-09-24T20:09:01.999Z,1.30
2022-09-24T20:11:32.376Z,1.63
2022-09-24T20:14:00.222Z,1.98
2022-09-24T20:16:30.975Z,1.45
2022-09-24T20:18:58.478Z,1.63
2022-09-24T20:21:28.526Z,1.70
2022-09-24T20:23:58.566Z,1.52
2022-09-24T20:26:44.488Z,1.30
2022-09-24T20:29:13.716Z,1.23
2022-09-24T20:31:44.423Z,1.20
2022-09-24T20:34:11.959Z,1.13
2022-09-24T20:36:39.497Z,2.22
2022-09-24T20:39:06.988Z,1.45
2022-09-24T20:41:34.471Z,1.00
2022-09-24T20:44:02.147Z,1.40
2022-09-24T20:46:30.238Z,1.30
2022-09-24T20:48:59.867Z,1.15
2022-09-24T20:51:33.518Z,1.35
2022-09-24T20:54:01.896Z,2.75
2022-09-24T20:56:30.990Z,1.67
2022-09-24T20:59:00.884Z,1.33
2022-09-24T21:01:28.833Z,1.33
2022-09-24T21:03:58.221Z,1.20
2022-09-24T21:06:26.907Z,1.05
2022-09-24T21:08:54.918Z,1.40
2022-09-24T21:11:26.779Z,2.50
2022-09-24T21:13:57.297Z,1.80
2022-09-24T21:16:28.851Z,1.02
2022-09-24T21:18:56.834Z,1.33
2022-09-24T21:21:29.967Z,1.27
2022-09-24T21:23:59.814Z,1.27
2022-09-24T21:26:29.493Z,1.58
2022-09-24T21:29:01.548Z,1.23
2022-09-24T21:31:31.662Z,1.00
2022-09-24T21:33:59.929Z,1.30
2022-09-24T21:36:32.875Z,1.13
2022-09-24T21:39:02.763Z,1.60
2022-09-24T21:41:34.954Z,1.10
2022-09-24T21:44:03.119Z,2.20
2022-09-24T21:46:31.343Z,1.33
2022-09-24T21:49:00.237Z,1.48
2022-09-24T21:51:30.163Z,1.70
2022-09-24T21:54:06.716Z,3.10
2022-09-24T21:56:36.372Z,2.20
2022-09-24T21:59:26.661Z,1.60
2022-09-24T22:01:54.945Z,1.90
2022-09-24T22:04:24.304Z,1.77
2022-09-24T22:06:52.526Z,1.80
2022-09-24T22:09:21.525Z,1.92
2022-09-24T22:11:49.316Z,2.47
2022-09-24T22:14:16.823Z,1.60
2022-09-24T22:16:44.869Z,1.85
2022-09-24T22:19:12.439Z,2.40
2022-09-24T22:21:40.496Z,2.17
2022-09-24T22:24:08.154Z,2.05
2022-09-24T22:26:35.902Z,2.38
2022-09-24T22:29:04.113Z,2.33
2022-09-24T22:31:32.948Z,2.20
2022-09-24T22:34:18.031Z,1.98
2022-09-24T22:36:45.555Z,4.18
2022-09-24T22:39:13.122Z,3.13
2022-09-24T22:41:43.314Z,4.50
2022-09-24T22:44:12.584Z,2.78
2022-09-24T22:46:41.325Z,3.47
2022-09-24T22:49:10.299Z,2.38
2022-09-24T22:51:38.465Z,3.25
2022-09-24T22:54:06.832Z,3.28
2022-09-24T22:56:35.828Z,3.67
2022-09-24T22:59:04.386Z,3.30
2022-09-24T23:01:35.400Z,3.10
2022-09-24T23:04:03.797Z,2.67
2022-09-24T23:06:33.890Z,2.53
2022-09-24T23:09:02.231Z,2.50
2022-09-24T23:11:32.526Z,3.28
2022-09-24T23:14:22.020Z,2.70
2022-09-24T23:16:49.621Z,2.35
2022-09-24T23:19:19.913Z,2.17
2022-09-24T23:21:48.146Z,2.35
2022-09-24T23:24:18.108Z,2.95
2022-09-24T23:26:46.930Z,3.17
2022-09-24T23:29:15.308Z,2.63
2022-09-24T23:31:43.086Z,3.10
2022-09-24T23:34:13.520Z,2.85
2022-09-24T23:36:41.480Z,2.78
2022-09-24T23:39:09.069Z,2.55
2022-09-24T23:41:37.223Z,2.70
2022-09-24T23:44:04.873Z,4.60
2022-09-24T23:46:33.705Z,3.28
2022-09-24T23:49:01.551Z,2.70
2022-09-24T23:51:29.277Z,2.70
2022-09-24T23:53:56.834Z,5.15
2022-09-24T23:56:24.428Z,6.78
2022-09-24T23:58:52.084Z,5.00
